Time;durP1;ratioP1;P1;durP2;ratioP2;P2;SDS_P1;SDS_P2;PMS_P1;PMS_P2;Temp;Humidity;BMP_temperature;BMP_pressure;BME280_temperature;BME280_humidity;BME280_pressure;Samples;Min_cycle;Max_cycle;Signal;HPM_P1;HPM_P2
2022/07/04 00:00:11;;;;;;;2.57;1.67;;;24.20;99.00;;;;;;5024623;28;20429;-69
2022/07/04 00:02:38;;;;;;;2.03;1.70;;;24.30;98.90;;;;;;5034763;28;20449;-69
2022/07/04 00:05:08;;;;;;;1.87;1.60;;;24.10;98.90;;;;;;5034945;28;20506;-69
2022/07/04 00:07:34;;;;;;;3.30;1.93;;;24.10;99.00;;;;;;5034787;28;20466;-68
2022/07/04 00:10:00;;;;;;;2.30;2.10;;;24.00;99.10;;;;;;5023852;28;20477;-68
2022/07/04 00:12:25;;;;;;;3.57;1.80;;;24.00;99.10;;;;;;5024046;28;20191;-68
2022/07/04 00:14:51;;;;;;;2.80;1.80;;;23.90;99.10;;;;;;5023970;28;20221;-68
2022/07/04 00:17:16;;;;;;;2.67;1.77;;;24.00;99.30;;;;;;5023849;28;20656;-68
2022/07/04 00:19:42;;;;;;;2.27;2.00;;;24.00;99.00;;;;;;5036702;28;20285;-68
2022/07/04 00:22:07;;;;;;;3.00;1.77;;;24.00;99.10;;;;;;5043599;28;20203;-68
2022/07/04 00:24:33;;;;;;;2.17;1.70;;;24.10;99.10;;;;;;5043702;28;20178;-68
2022/07/04 00:26:59;;;;;;;2.00;1.63;;;23.90;99.10;;;;;;5036790;28;20206;-68
2022/07/04 00:29:24;;;;;;;3.63;2.03;;;23.60;99.50;;;;;;5023768;28;20663;-68
2022/07/04 00:31:50;;;;;;;2.27;2.07;;;23.50;99.80;;;;;;5030669;28;20187;-68
2022/07/04 00:34:15;;;;;;;3.17;1.83;;;23.40;99.70;;;;;;5030236;28;20186;-68
2022/07/04 00:36:41;;;;;;;3.93;2.20;;;23.30;99.90;;;;;;5037971;28;20175;-68
2022/07/04 00:39:07;;;;;;;4.43;2.27;;;23.20;99.90;;;;;;5037567;28;20261;-67
2022/07/04 00:41:32;;;;;;;2.57;1.90;;;23.30;99.90;;;;;;5031483;28;20179;-69
2022/07/04 00:44:09;;;;;;;6.70;2.27;;;23.30;99.90;;;;;;5034426;28;20198;-69
2022/07/04 00:46:35;;;;;;;3.47;2.00;;;23.30;99.90;;;;;;5043532;28;20323;-69
2022/07/04 00:49:03;;;;;;;3.30;2.57;;;23.30;99.90;;;;;;5026619;28;20410;-69
2022/07/04 00:51:29;;;;;;;3.50;2.00;;;23.20;99.90;;;;;;5042720;28;20491;-69
2022/07/04 00:53:56;;;;;;;2.30;1.83;;;23.30;99.90;;;;;;5025379;28;20470;-68
2022/07/04 00:56:23;;;;;;;4.40;2.23;;;23.10;99.90;;;;;;5023923;28;20738;-68
2022/07/04 00:58:50;;;;;;;1.93;1.80;;;22.90;99.90;;;;;;5031584;28;20440;-68
2022/07/04 01:01:17;;;;;;;3.57;1.67;;;22.90;99.90;;;;;;5028882;28;20420;-69
2022/07/04 01:03:43;;;;;;;7.57;1.93;;;23.00;99.90;;;;;;5026632;28;20438;-68
2022/07/04 01:06:09;;;;;;;2.30;1.70;;;23.20;99.90;;;;;;5024029;28;20445;-68
2022/07/04 01:08:41;;;;;;;3.27;1.97;;;23.10;99.90;;;;;;5026352;28;20492;-69
2022/07/04 01:11:06;;;;;;;2.10;2.00;;;23.20;99.90;;;;;;5038543;28;20910;-69
2022/07/04 01:13:32;;;;;;;6.00;2.00;;;23.20;99.90;;;;;;5040094;28;20463;-68
2022/07/04 01:15:58;;;;;;;3.93;2.10;;;23.20;99.90;;;;;;5041951;28;20261;-68
2022/07/04 01:18:24;;;;;;;3.80;1.80;;;23.20;99.90;;;;;;5047021;28;20864;-68
2022/07/04 01:20:50;;;;;;;3.20;1.70;;;23.10;99.90;;;;;;5027909;28;20183;-68
2022/07/04 01:23:16;;;;;;;4.50;2.70;;;23.30;99.90;;;;;;5035174;28;20228;-67
2022/07/04 01:25:42;;;;;;;2.67;1.90;;;23.00;99.90;;;;;;5044852;28;20515;-68
2022/07/04 01:28:08;;;;;;;4.40;2.07;;;22.90;99.90;;;;;;5033214;28;20597;-67
2022/07/04 01:30:36;;;;;;;2.10;1.90;;;22.90;99.90;;;;;;5010077;28;20429;-69
2022/07/04 01:33:02;;;;;;;2.00;1.77;;;22.70;99.90;;;;;;5032614;28;20453;-68
2022/07/04 01:35:28;;;;;;;2.13;1.63;;;22.80;99.90;;;;;;5016590;28;20436;-68
2022/07/04 01:37:53;;;;;;;4.17;2.03;;;22.80;99.90;;;;;;5039292;28;20435;-69
2022/07/04 01:40:19;;;;;;;2.47;2.03;;;22.90;99.90;;;;;;5039588;28;20215;-68
2022/07/04 01:42:44;;;;;;;3.47;2.10;;;22.80;99.90;;;;;;5047580;28;20217;-68
2022/07/04 01:45:11;;;;;;;2.13;1.60;;;22.90;99.90;;;;;;5055670;28;20222;-67
2022/07/04 01:47:37;;;;;;;3.37;1.80;;;23.10;99.90;;;;;;5048055;28;20203;-67
2022/07/04 01:50:05;;;;;;;3.70;1.93;;;22.90;99.90;;;;;;5047533;28;20449;-69
2022/07/04 01:52:31;;;;;;;4.17;2.17;;;22.80;99.90;;;;;;5052778;28;20433;-67
2022/07/04 01:54:56;;;;;;;3.10;1.80;;;22.90;99.90;;;;;;5048511;28;20890;-68
2022/07/04 01:57:22;;;;;;;5.33;1.97;;;22.60;99.90;;;;;;5049919;28;20202;-68
2022/07/04 02:02:32;;;;;;;2.10;1.90;;;22.60;99.90;;;;;;5036074;28;20206;-67
2022/07/04 02:04:57;;;;;;;2.07;1.63;;;22.50;99.90;;;;;;5037325;28;20426;-67
2022/07/04 02:07:23;;;;;;;2.03;1.73;;;22.60;99.90;;;;;;5036878;28;20206;-67
2022/07/04 02:09:49;;;;;;;4.20;2.27;;;22.60;99.90;;;;;;5029198;28;20262;-68
2022/07/04 02:14:58;;;;;;;4.83;1.90;;;22.50;99.90;;;;;;5039461;28;20615;-68
2022/07/04 02:17:24;;;;;;;3.47;1.87;;;22.50;99.90;;;;;;5043661;28;20417;-68
2022/07/04 02:19:50;;;;;;;5.23;1.93;;;22.40;99.90;;;;;;5031722;28;20293;-67
2022/07/04 02:22:15;;;;;;;3.33;1.97;;;22.40;99.90;;;;;;5037417;28;20652;-68
2022/07/04 02:24:41;;;;;;;4.30;1.80;;;22.40;99.90;;;;;;5034871;28;20186;-67
2022/07/04 02:27:08;;;;;;;3.43;2.10;;;22.40;99.90;;;;;;5035172;28;20194;-68
2022/07/04 02:29:34;;;;;;;2.27;1.73;;;22.30;99.90;;;;;;5041729;28;20548;-66
2022/07/04 02:31:59;;;;;;;3.40;2.30;;;22.30;99.90;;;;;;5043062;28;20437;-67
2022/07/04 02:34:25;;;;;;;3.77;2.67;;;22.00;99.90;;;;;;5029824;28;20189;-67
2022/07/04 02:36:50;;;;;;;3.07;2.00;;;21.90;99.90;;;;;;5038279;28;20192;-69
2022/07/04 02:39:16;;;;;;;2.53;2.30;;;22.10;99.90;;;;;;5046031;28;20190;-68
2022/07/04 02:41:42;;;;;;;4.47;1.97;;;22.20;99.90;;;;;;5045568;28;20194;-68
2022/07/04 02:44:08;;;;;;;2.60;2.13;;;22.30;99.90;;;;;;5028795;28;20198;-68
2022/07/04 02:46:34;;;;;;;3.77;2.07;;;22.10;99.90;;;;;;5029343;28;20525;-67
2022/07/04 02:49:00;;;;;;;3.53;1.97;;;22.10;99.90;;;;;;5025993;28;20428;-67
2022/07/04 02:51:26;;;;;;;4.83;2.03;;;21.90;99.90;;;;;;5036023;28;20187;-69
2022/07/04 02:53:52;;;;;;;3.27;1.80;;;21.80;99.90;;;;;;5041897;28;20483;-68
2022/07/04 02:56:17;;;;;;;2.43;2.20;;;21.80;99.90;;;;;;5045374;28;20185;-69
2022/07/04 02:58:43;;;;;;;4.07;2.40;;;21.70;99.90;;;;;;5045665;28;20197;-70
2022/07/04 03:01:08;;;;;;;2.80;2.00;;;21.70;99.90;;;;;;5034360;28;20683;-68
2022/07/04 03:03:34;;;;;;;5.37;2.20;;;21.50;99.90;;;;;;5025351;28;20249;-67
2022/07/04 03:06:00;;;;;;;3.07;1.90;;;21.50;99.90;;;;;;5025854;28;21236;-70
2022/07/04 03:08:26;;;;;;;2.87;2.43;;;21.60;99.90;;;;;;5025483;28;20360;-69
2022/07/04 03:10:52;;;;;;;3.53;2.33;;;21.70;99.90;;;;;;5028799;28;20185;-69
2022/07/04 03:13:19;;;;;;;3.73;2.10;;;21.60;99.90;;;;;;5044742;28;20313;-68
2022/07/04 03:15:44;;;;;;;4.23;2.10;;;21.50;99.90;;;;;;5045139;28;20478;-67
2022/07/04 03:18:10;;;;;;;2.30;2.10;;;21.50;99.90;;;;;;5038715;28;20414;-69
2022/07/04 03:20:36;;;;;;;4.50;2.40;;;21.50;99.90;;;;;;5025092;28;20175;-68
2022/07/04 03:23:02;;;;;;;2.00;1.90;;;21.40;99.90;;;;;;5024755;28;20683;-67
2022/07/04 03:25:28;;;;;;;2.80;1.90;;;21.40;99.90;;;;;;5040072;28;20886;-70
2022/07/04 03:27:53;;;;;;;2.70;2.20;;;21.50;99.90;;;;;;5025890;28;20238;-69
2022/07/04 03:30:20;;;;;;;3.53;2.20;;;21.60;99.90;;;;;;5006726;28;20934;-69
2022/07/04 03:32:45;;;;;;;3.93;2.00;;;21.50;99.90;;;;;;5023543;28;20226;-70
2022/07/04 03:35:11;;;;;;;2.60;2.30;;;21.50;99.90;;;;;;5024373;28;20958;-68
2022/07/04 03:37:36;;;;;;;2.20;1.77;;;21.60;99.90;;;;;;5024695;28;20206;-68
2022/07/04 03:40:03;;;;;;;2.70;2.00;;;21.70;99.90;;;;;;5024367;28;20187;-69
2022/07/04 03:42:28;;;;;;;2.20;2.00;;;21.60;99.90;;;;;;5024037;28;20609;-68
2022/07/04 03:44:54;;;;;;;3.30;2.03;;;21.60;99.90;;;;;;5024357;28;20464;-68
2022/07/04 03:47:20;;;;;;;3.33;2.20;;;21.50;99.90;;;;;;5024111;28;20710;-69
2022/07/04 03:49:45;;;;;;;3.20;1.90;;;21.30;99.90;;;;;;5024004;28;20266;-69
2022/07/04 03:52:11;;;;;;;2.83;2.20;;;21.20;99.90;;;;;;5024115;28;20743;-69
2022/07/04 03:54:36;;;;;;;3.93;2.30;;;21.20;99.90;;;;;;5024449;28;20183;-68
2022/07/04 03:57:02;;;;;;;2.40;1.80;;;21.20;99.90;;;;;;5023745;28;20653;-69
2022/07/04 03:59:28;;;;;;;4.20;2.40;;;21.40;99.90;;;;;;5024270;28;20684;-69
2022/07/04 04:01:53;;;;;;;15.97;2.20;;;21.30;99.90;;;;;;5024052;28;20197;-69
2022/07/04 04:07:04;;;;;;;3.83;2.67;;;21.20;99.90;;;;;;5043795;28;20675;-68
2022/07/04 04:09:29;;;;;;;3.13;1.97;;;21.10;99.90;;;;;;5044045;28;20404;-68
2022/07/04 04:11:55;;;;;;;2.87;2.20;;;21.20;99.90;;;;;;5029589;28;20249;-68
2022/07/04 04:14:20;;;;;;;3.40;2.57;;;21.30;99.90;;;;;;5024012;28;20179;-67
2022/07/04 04:16:46;;;;;;;3.17;2.00;;;21.50;99.90;;;;;;5006111;28;20179;-68
2022/07/04 04:19:12;;;;;;;4.47;2.30;;;21.40;99.90;;;;;;5023837;28;20229;-66
2022/07/04 04:21:38;;;;;;;2.57;2.07;;;21.30;99.90;;;;;;5023679;28;20252;-67
2022/07/04 04:24:04;;;;;;;3.67;2.60;;;21.30;99.90;;;;;;5023897;28;20410;-69
2022/07/04 04:26:29;;;;;;;2.03;1.83;;;21.30;99.90;;;;;;5023638;28;20217;-68
2022/07/04 04:28:55;;;;;;;2.10;1.90;;;21.40;99.90;;;;;;5039900;28;20192;-69
2022/07/04 04:31:21;;;;;;;3.60;1.97;;;21.40;99.90;;;;;;5042649;28;20640;-68
2022/07/04 04:33:47;;;;;;;2.83;2.03;;;21.40;99.90;;;;;;5035133;28;20210;-68
2022/07/04 04:36:13;;;;;;;3.07;2.40;;;21.30;99.90;;;;;;5029157;28;20184;-68
2022/07/04 04:38:38;;;;;;;3.10;2.40;;;21.30;99.90;;;;;;5023457;28;20690;-68
2022/07/04 04:41:04;;;;;;;5.40;2.67;;;21.30;99.90;;;;;;5041465;28;20175;-68
2022/07/04 04:43:29;;;;;;;2.33;2.00;;;21.40;99.90;;;;;;5043105;28;20207;-67
2022/07/04 04:45:55;;;;;;;3.50;2.20;;;21.30;99.90;;;;;;5041108;28;20683;-68
2022/07/04 04:48:21;;;;;;;6.30;2.30;;;21.40;99.90;;;;;;5034599;28;20174;-69
2022/07/04 04:50:46;;;;;;;2.20;2.10;;;21.30;99.90;;;;;;5025523;28;20183;-69
2022/07/04 04:53:12;;;;;;;3.47;2.23;;;21.20;99.90;;;;;;5023644;28;20288;-69
2022/07/04 04:55:38;;;;;;;3.00;1.90;;;21.20;99.90;;;;;;5023404;28;20195;-69
2022/07/04 04:58:04;;;;;;;4.07;2.33;;;21.40;99.90;;;;;;5023534;28;20205;-67
2022/07/04 05:02:58;;;;;;;2.17;1.97;;;21.50;99.90;;;;;;5047568;22;20490;-69
2022/07/04 05:05:23;;;;;;;2.60;2.00;;;21.60;99.90;;;;;;5023648;28;20409;-69
2022/07/04 05:07:49;;;;;;;2.00;1.83;;;21.60;99.90;;;;;;5023876;28;20202;-68
2022/07/04 05:10:15;;;;;;;2.40;1.87;;;21.40;99.90;;;;;;5023842;28;20250;-69
2022/07/04 05:12:42;;;;;;;8.63;2.23;;;21.30;99.90;;;;;;5023247;28;20218;-68
2022/07/04 05:15:08;;;;;;;2.40;2.20;;;21.40;99.90;;;;;;5023605;28;20436;-69
2022/07/04 05:17:34;;;;;;;2.60;2.17;;;21.30;99.90;;;;;;5022967;28;20797;-69
2022/07/04 05:19:59;;;;;;;2.97;2.33;;;21.30;99.90;;;;;;5023631;28;20410;-70
2022/07/04 05:22:25;;;;;;;2.77;2.40;;;21.40;99.90;;;;;;5023287;28;20204;-69
2022/07/04 05:24:51;;;;;;;4.10;2.13;;;21.60;99.90;;;;;;5023328;28;20175;-69
2022/07/04 05:27:16;;;;;;;2.97;2.23;;;21.50;99.90;;;;;;5016432;28;20331;-69
2022/07/04 05:29:42;;;;;;;5.20;2.30;;;21.50;99.90;;;;;;5023322;28;20261;-69
2022/07/04 05:32:08;;;;;;;2.63;2.00;;;21.60;99.90;;;;;;5022701;28;20195;-69
2022/07/04 05:34:34;;;;;;;2.93;1.90;;;21.60;99.90;;;;;;5023116;28;20241;-69
2022/07/04 05:37:00;;;;;;;3.50;2.27;;;21.50;99.90;;;;;;5023232;28;20200;-69
2022/07/04 05:39:25;;;;;;;4.27;2.30;;;21.50;99.90;;;;;;5023031;28;20413;-68
2022/07/04 05:41:51;;;;;;;3.37;2.20;;;21.60;99.90;;;;;;5023218;28;20199;-70
2022/07/04 05:44:16;;;;;;;4.33;2.23;;;21.70;99.90;;;;;;5023128;28;20180;-69
2022/07/04 05:46:42;;;;;;;3.03;2.83;;;21.70;99.90;;;;;;5022669;28;20203;-69
2022/07/04 05:49:07;;;;;;;3.57;2.47;;;21.80;99.90;;;;;;5022992;28;20180;-70
2022/07/04 05:51:34;;;;;;;2.77;2.07;;;22.00;99.90;;;;;;5023148;28;20195;-70
2022/07/04 05:53:59;;;;;;;4.73;1.90;;;22.20;99.90;;;;;;5023440;28;20482;-69
2022/07/04 05:56:25;;;;;;;3.80;2.00;;;22.20;99.90;;;;;;5024628;28;20222;-69
2022/07/04 05:58:52;;;;;;;2.37;2.17;;;22.10;99.90;;;;;;5026739;28;20270;-69
2022/07/04 06:01:18;;;;;;;2.70;2.07;;;22.20;99.90;;;;;;5025840;28;20222;-69
2022/07/04 06:03:43;;;;;;;3.10;2.23;;;22.10;99.90;;;;;;5026330;28;20417;-69
2022/07/04 06:06:09;;;;;;;2.67;2.10;;;22.10;99.90;;;;;;5026351;28;20225;-69
2022/07/04 06:08:34;;;;;;;3.37;1.67;;;22.20;99.90;;;;;;5026653;28;20182;-69
2022/07/04 06:11:00;;;;;;;3.33;1.70;;;22.10;99.90;;;;;;5026059;28;20195;-68
2022/07/04 06:13:27;;;;;;;2.87;1.80;;;22.00;99.90;;;;;;5026508;28;20203;-68
2022/07/04 06:15:53;;;;;;;5.10;1.70;;;22.10;99.90;;;;;;5026642;28;20182;-70
2022/07/04 06:18:18;;;;;;;2.37;1.83;;;21.90;99.90;;;;;;5026188;28;20418;-70
2022/07/04 06:20:44;;;;;;;4.77;2.07;;;21.80;99.90;;;;;;5026363;28;20179;-70
2022/07/04 06:23:09;;;;;;;2.90;2.10;;;21.70;99.90;;;;;;5025896;28;20179;-69
2022/07/04 06:25:35;;;;;;;3.37;2.07;;;22.10;99.90;;;;;;5025904;28;20186;-70
2022/07/04 06:28:01;;;;;;;3.70;1.80;;;22.40;99.90;;;;;;5025883;28;21009;-69
2022/07/04 06:30:27;;;;;;;3.23;1.90;;;22.70;99.90;;;;;;5026198;28;20183;-69
2022/07/04 06:32:56;;;;;;;4.00;1.87;;;22.80;99.90;;;;;;5025398;28;20195;-69
2022/07/04 06:38:10;;;;;;;3.80;2.20;;;22.70;99.90;;;;;;5025968;28;20413;-69
2022/07/04 06:40:36;;;;;;;4.07;2.57;;;22.80;99.90;;;;;;5025631;28;20420;-69
2022/07/04 06:43:03;;;;;;;4.17;2.50;;;23.00;99.90;;;;;;5025875;28;20500;-70
2022/07/04 06:45:29;;;;;;;2.60;2.00;;;23.30;99.90;;;;;;5026119;28;20511;-68
2022/07/04 06:47:54;;;;;;;4.17;2.10;;;23.40;99.90;;;;;;5025360;28;20496;-70
2022/07/04 06:50:20;;;;;;;3.07;2.10;;;23.40;99.90;;;;;;5025716;28;20266;-69
2022/07/04 06:52:46;;;;;;;3.17;2.53;;;23.20;99.90;;;;;;5025365;28;20636;-70
2022/07/04 06:55:11;;;;;;;6.60;2.97;;;23.10;99.90;;;;;;5025288;28;20663;-70
2022/07/04 06:57:37;;;;;;;3.00;2.27;;;23.30;99.90;;;;;;5025126;28;20226;-69
2022/07/04 07:00:07;;;;;;;4.17;2.40;;;23.10;99.90;;;;;;5025374;28;20226;-68
2022/07/04 07:02:37;;;;;;;2.60;1.87;;;22.90;99.90;;;;;;5024571;28;20446;-70
2022/07/04 07:05:04;;;;;;;3.03;2.10;;;23.10;99.90;;;;;;5025704;28;20421;-69
2022/07/04 07:07:30;;;;;;;2.63;1.93;;;23.50;99.90;;;;;;5024251;28;20560;-70
2022/07/04 07:09:56;;;;;;;3.00;2.20;;;23.40;99.90;;;;;;5025969;28;20509;-70
2022/07/04 07:12:22;;;;;;;3.20;2.00;;;23.30;99.90;;;;;;5025407;28;20265;-70
2022/07/04 07:14:49;;;;;;;2.30;2.10;;;23.30;99.90;;;;;;5025306;28;20410;-69
2022/07/04 07:17:15;;;;;;;3.23;2.03;;;23.30;99.90;;;;;;5024687;28;20440;-69
2022/07/04 07:19:42;;;;;;;4.43;2.10;;;23.60;99.90;;;;;;5025625;28;20513;-70
2022/07/04 07:22:09;;;;;;;3.33;2.23;;;24.00;99.90;;;;;;5025248;28;20438;-69
2022/07/04 07:24:35;;;;;;;2.63;2.30;;;23.90;99.90;;;;;;5025303;28;20413;-69
2022/07/04 07:27:00;;;;;;;3.30;2.20;;;23.90;99.90;;;;;;5025094;28;20830;-69
2022/07/04 07:29:26;;;;;;;3.73;1.90;;;23.70;99.90;;;;;;5025007;28;20179;-69
2022/07/04 07:31:51;;;;;;;3.13;1.97;;;23.90;99.90;;;;;;5024955;28;20223;-69
2022/07/04 07:34:17;;;;;;;4.33;2.30;;;23.90;99.90;;;;;;5024860;28;20189;-70
2022/07/04 07:36:43;;;;;;;3.83;2.10;;;23.70;99.90;;;;;;5025127;28;20194;-69
2022/07/04 07:39:09;;;;;;;8.63;2.57;;;23.50;99.90;;;;;;5024722;28;20577;-69
2022/07/04 07:41:34;;;;;;;4.00;2.03;;;23.70;99.90;;;;;;5024688;28;20207;-69
2022/07/04 07:44:00;;;;;;;3.80;2.10;;;23.70;99.90;;;;;;5024545;28;20278;-70
2022/07/04 07:46:26;;;;;;;4.83;2.20;;;23.60;99.90;;;;;;5024174;28;20206;-69
2022/07/04 07:48:51;;;;;;;3.20;2.40;;;23.50;99.90;;;;;;5024341;28;20656;-68
2022/07/04 07:51:17;;;;;;;3.27;2.30;;;23.40;99.90;;;;;;5024419;28;20207;-69
2022/07/04 07:53:43;;;;;;;5.20;3.10;;;23.40;99.90;;;;;;5024462;28;20249;-68
2022/07/04 07:56:09;;;;;;;5.03;2.00;;;23.40;99.90;;;;;;5024276;28;20218;-70
2022/07/04 07:58:34;;;;;;;2.83;2.00;;;23.70;99.90;;;;;;5024543;28;20441;-69
2022/07/04 08:01:03;;;;;;;3.60;2.60;;;24.20;99.90;;;;;;5024119;28;20453;-69
2022/07/04 08:06:14;;;;;;;2.50;2.30;;;24.90;99.80;;;;;;5024577;28;20468;-70
2022/07/04 08:08:40;;;;;;;4.83;3.13;;;24.50;99.40;;;;;;5023882;28;20421;-69
2022/07/04 08:11:06;;;;;;;3.20;2.63;;;24.30;99.70;;;;;;5023711;28;20509;-69
2022/07/04 08:13:31;;;;;;;2.80;2.60;;;24.50;99.70;;;;;;5023681;28;20963;-70
2022/07/04 08:15:57;;;;;;;5.93;2.67;;;24.10;99.60;;;;;;5024103;28;20677;-69
2022/07/04 08:18:23;;;;;;;4.20;2.33;;;23.80;99.90;;;;;;5023257;28;20179;-69
2022/07/04 08:20:50;;;;;;;3.90;2.40;;;23.80;99.90;;;;;;5023245;28;20262;-69
2022/07/04 08:23:16;;;;;;;3.00;2.50;;;23.70;99.90;;;;;;5023904;28;20171;-70
2022/07/04 08:25:42;;;;;;;4.23;2.10;;;24.00;99.90;;;;;;5023780;28;20425;-70
2022/07/04 08:28:07;;;;;;;3.33;2.23;;;23.90;99.90;;;;;;5023842;28;20981;-68
2022/07/04 08:30:33;;;;;;;3.00;2.07;;;24.30;99.80;;;;;;5023523;28;20491;-69
2022/07/04 08:32:58;;;;;;;4.97;2.40;;;23.80;99.90;;;;;;5023112;28;20245;-70
2022/07/04 08:35:24;;;;;;;3.30;1.87;;;23.80;99.90;;;;;;5023886;28;20179;-69
2022/07/04 08:37:53;;;;;;;4.63;2.40;;;23.60;99.90;;;;;;5023890;28;20855;-70
2022/07/04 08:40:22;;;;;;;3.13;2.17;;;23.90;99.90;;;;;;5023904;28;20175;-70
2022/07/04 08:42:48;;;;;;;6.40;2.90;;;23.70;99.90;;;;;;5024037;28;20815;-69
2022/07/04 08:45:16;;;;;;;7.13;2.93;;;23.80;99.90;;;;;;5023549;28;20418;-71
2022/07/04 08:47:43;;;;;;;5.00;2.00;;;24.00;99.90;;;;;;5021692;28;20203;-70
2022/07/04 08:50:20;;;;;;;3.03;2.30;;;24.40;99.90;;;;;;5023910;28;20796;-70
2022/07/04 08:53:34;;;;;;;3.40;3.10;;;24.00;99.90;;;;;;5023522;28;20802;-71
2022/07/04 08:58:45;;;;;;;3.47;2.67;;;23.90;99.90;;;;;;5019261;28;20463;-71
2022/07/04 09:01:14;;;;;;;4.33;2.90;;;23.60;99.90;;;;;;5023159;28;20442;-70
2022/07/04 09:03:42;;;;;;;2.70;2.10;;;23.60;99.90;;;;;;5023217;28;20409;-70
2022/07/04 09:06:09;;;;;;;4.40;2.23;;;23.60;99.90;;;;;;5022827;28;20409;-70
2022/07/04 09:08:35;;;;;;;3.60;2.40;;;23.70;99.90;;;;;;5023836;28;20421;-70
2022/07/04 09:11:01;;;;;;;4.13;2.60;;;23.60;99.90;;;;;;5023386;28;21337;-70
2022/07/04 09:13:27;;;;;;;3.07;2.50;;;24.20;99.90;;;;;;5023543;28;20538;-71
2022/07/04 09:15:55;;;;;;;2.77;2.00;;;24.00;99.90;;;;;;5023438;28;20505;-70
2022/07/04 09:18:27;;;;;;;3.23;2.60;;;24.40;99.90;;;;;;5022865;28;20175;-70
2022/07/04 09:20:57;;;;;;;5.30;2.70;;;24.50;99.90;;;;;;5023461;28;20460;-71
2022/07/04 09:23:25;;;;;;;3.47;2.97;;;24.00;99.90;;;;;;5023271;28;20499;-69
2022/07/04 09:26:13;;;;;;;5.10;2.77;;;24.40;99.90;;;;;;5023515;28;20421;-71
2022/07/04 09:28:42;;;;;;;3.50;2.00;;;24.60;99.80;;;;;;5013473;28;20682;-70
2022/07/04 09:31:19;;;;;;;4.10;2.70;;;24.20;99.90;;;;;;5024707;28;20441;-70
2022/07/04 09:33:51;;;;;;;4.10;2.70;;;24.00;99.90;;;;;;5026804;28;20425;-71
2022/07/04 09:36:20;;;;;;;4.47;2.57;;;24.20;99.80;;;;;;5027271;28;20413;-70
2022/07/04 09:39:03;;;;;;;5.20;2.77;;;24.60;99.50;;;;;;5027053;28;20410;-71
2022/07/04 09:41:35;;;;;;;3.37;2.57;;;24.60;99.90;;;;;;5026800;28;20430;-71
2022/07/04 09:44:06;;;;;;;2.70;2.50;;;24.80;99.40;;;;;;5026827;28;20398;-71
2022/07/04 09:46:33;;;;;;;3.90;2.73;;;25.00;99.10;;;;;;5026700;28;20461;-70
2022/07/04 09:48:59;;;;;;;7.83;3.17;;;25.00;98.70;;;;;;5026403;28;20409;-70
2022/07/04 09:51:45;;;;;;;4.13;2.97;;;25.20;99.10;;;;;;5026721;28;20954;-71
2022/07/04 09:54:13;;;;;;;4.40;2.67;;;25.50;98.20;;;;;;5026559;28;20989;-71
2022/07/04 09:56:44;;;;;;;3.77;2.60;;;25.40;98.10;;;;;;5026454;28;20941;-71
2022/07/04 09:59:09;;;;;;;4.07;3.10;;;25.30;98.30;;;;;;5026419;28;20489;-70
2022/07/04 10:01:35;;;;;;;4.77;2.70;;;25.40;97.70;;;;;;5020797;28;20556;-71
2022/07/04 10:04:03;;;;;;;3.50;2.90;;;25.40;97.80;;;;;;5026556;28;20261;-71
2022/07/04 10:06:32;;;;;;;6.70;2.90;;;25.30;97.30;;;;;;5026211;28;20704;-70
2022/07/04 10:09:08;;;;;;;3.90;2.33;;;25.20;97.60;;;;;;5026420;28;20443;-69
2022/07/04 10:11:34;;;;;;;4.13;2.47;;;25.30;96.70;;;;;;5026585;28;20436;-70
2022/07/04 10:14:00;;;;;;;4.03;2.90;;;25.30;97.20;;;;;;5026573;28;20448;-71
2022/07/04 10:16:27;;;;;;;5.63;2.10;;;25.30;96.40;;;;;;5008528;28;20422;-70
2022/07/04 10:18:54;;;;;;;6.57;2.60;;;25.40;97.00;;;;;;5025915;28;20524;-70
2022/07/04 10:21:20;;;;;;;3.23;2.07;;;25.50;97.50;;;;;;5026274;28;20536;-70
2022/07/04 10:23:47;;;;;;;3.93;2.27;;;25.80;96.50;;;;;;5026598;28;20986;-70
2022/07/04 10:26:16;;;;;;;4.60;2.80;;;26.00;96.20;;;;;;5026041;28;20294;-71
2022/07/04 10:28:42;;;;;;;3.63;2.60;;;26.00;96.30;;;;;;5025958;28;20420;-70
2022/07/04 10:31:08;;;;;;;5.63;2.90;;;25.80;96.00;;;;;;5025861;28;20434;-70
2022/07/04 10:33:36;;;;;;;2.90;2.43;;;25.80;96.10;;;;;;5026003;28;20735;-71
2022/07/04 10:36:14;;;;;;;2.80;2.20;;;26.00;95.50;;;;;;5024445;28;20191;-70
2022/07/04 10:38:52;;;;;;;3.70;2.20;;;26.20;95.10;;;;;;5027488;28;20406;-70
2022/07/04 10:41:20;;;;;;;2.53;2.07;;;26.00;94.60;;;;;;5026321;28;20874;-70
2022/07/04 10:44:07;;;;;;;3.73;2.07;;;26.00;94.90;;;;;;5026516;28;20464;-70
2022/07/04 10:46:35;;;;;;;2.63;2.20;;;26.00;96.00;;;;;;5027576;28;20591;-71
2022/07/04 10:49:24;;;;;;;4.30;2.37;;;26.00;94.90;;;;;;5029575;28;20402;-71
2022/07/04 10:51:52;;;;;;;3.43;2.07;;;26.10;94.80;;;;;;5025687;28;20433;-73
2022/07/04 10:54:32;;;;;;;6.20;2.40;;;26.10;95.30;;;;;;5025783;28;20782;-71
2022/07/04 10:57:10;;;;;;;3.23;2.10;;;26.10;95.00;;;;;;5025722;28;20401;-70
2022/07/04 10:59:36;;;;;;;5.93;2.23;;;26.30;94.90;;;;;;5025236;28;20428;-71
2022/07/04 11:02:08;;;;;;;8.73;2.60;;;26.70;94.40;;;;;;5024338;28;20553;-71
2022/07/04 11:04:56;;;;;;;6.13;2.50;;;26.50;94.30;;;;;;5025157;28;20656;-71
2022/07/04 11:07:37;;;;;;;3.13;2.10;;;26.70;94.30;;;;;;5025156;28;20544;-70
2022/07/04 11:10:12;;;;;;;2.87;2.57;;;27.00;94.50;;;;;;5024967;28;20418;-71
2022/07/04 11:12:55;;;;;;;5.00;2.43;;;26.80;94.40;;;;;;5024205;28;21007;-71
2022/07/04 11:15:27;;;;;;;4.10;2.73;;;26.70;94.40;;;;;;5025320;28;20818;-71
2022/07/04 11:18:01;;;;;;;5.27;2.67;;;26.40;94.80;;;;;;5025043;28;20421;-70
2022/07/04 11:20:30;;;;;;;3.33;2.60;;;26.60;94.50;;;;;;5025229;28;20416;-70
2022/07/04 11:23:07;;;;;;;4.10;2.50;;;26.50;94.60;;;;;;5023159;28;20466;-70
2022/07/04 11:25:33;;;;;;;3.40;2.80;;;26.20;94.90;;;;;;5024862;28;20504;-70
2022/07/04 11:28:18;;;;;;;3.47;2.63;;;26.20;94.90;;;;;;5025084;28;20473;-71
2022/07/04 11:30:55;;;;;;;2.70;2.50;;;26.40;94.80;;;;;;5024698;28;20179;-71
2022/07/04 11:33:25;;;;;;;5.27;2.80;;;26.60;93.90;;;;;;5010608;28;20920;-70
2022/07/04 11:36:05;;;;;;;4.70;2.70;;;27.30;93.80;;;;;;5024660;28;21016;-70
2022/07/04 11:38:46;;;;;;;3.30;2.33;;;28.80;91.20;;;;;;5005664;28;20432;-71
2022/07/04 11:46:40;;;;;;;2.43;2.17;;;33.20;79.50;;;;;;5024398;28;20452;-71
2022/07/04 11:49:10;;;;;;;3.07;2.60;;;32.80;76.60;;;;;;5024436;28;20805;-70
2022/07/04 11:51:42;;;;;;;4.23;2.20;;;32.20;76.80;;;;;;5024806;28;20207;-70
2022/07/04 11:54:08;;;;;;;2.97;2.37;;;33.10;73.40;;;;;;5023738;28;20501;-69
2022/07/04 11:56:34;;;;;;;3.93;2.00;;;33.80;71.30;;;;;;5024763;28;20500;-70
2022/07/04 11:59:13;;;;;;;3.53;2.47;;;33.30;72.20;;;;;;5024187;28;20515;-70
2022/07/04 12:01:39;;;;;;;4.33;1.93;;;31.80;72.20;;;;;;5024202;28;20219;-70
2022/07/04 12:04:12;;;;;;;5.40;2.30;;;30.20;76.20;;;;;;5024071;28;20969;-70
2022/07/04 12:06:38;;;;;;;2.67;2.40;;;31.40;78.20;;;;;;5024253;28;20450;-70
2022/07/04 12:09:04;;;;;;;2.40;1.97;;;31.10;75.80;;;;;;5006085;28;21069;-70
2022/07/04 12:11:51;;;;;;;3.33;2.03;;;32.10;72.40;;;;;;5023958;28;20932;-70
2022/07/04 12:14:17;;;;;;;2.17;1.43;;;32.80;72.60;;;;;;5006220;28;20417;-70
2022/07/04 12:16:42;;;;;;;4.47;2.20;;;34.00;72.10;;;;;;5024225;28;20429;-71
2022/07/04 12:19:10;;;;;;;3.90;1.50;;;35.40;66.00;;;;;;5023787;28;20644;-71
2022/07/04 12:21:36;;;;;;;3.60;1.93;;;36.00;63.40;;;;;;5024280;28;20207;-71
2022/07/04 12:24:04;;;;;;;3.50;2.23;;;34.30;65.40;;;;;;5023510;28;20418;-69
2022/07/04 12:26:35;;;;;;;4.90;2.10;;;33.30;66.80;;;;;;5023760;28;20815;-70
2022/07/04 12:29:00;;;;;;;4.10;2.60;;;33.30;65.80;;;;;;5023560;28;20418;-70
2022/07/04 12:31:53;;;;;;;2.80;1.90;;;32.90;65.50;;;;;;5023699;28;20487;-71
2022/07/04 12:34:19;;;;;;;2.27;2.07;;;33.00;66.50;;;;;;5020888;28;20631;-70
2022/07/04 12:36:52;;;;;;;3.00;2.10;;;34.00;64.80;;;;;;5023973;28;20461;-70
2022/07/04 12:39:47;;;;;;;2.13;1.90;;;34.50;65.80;;;;;;5023505;28;20422;-71
2022/07/04 12:42:18;;;;;;;2.50;1.97;;;35.40;60.50;;;;;;5012207;28;20468;-71
2022/07/04 12:44:49;;;;;;;3.10;1.70;;;36.30;61.10;;;;;;5024047;28;20410;-71
2022/07/04 12:47:15;;;;;;;3.07;2.10;;;35.60;60.50;;;;;;5021758;28;20845;-71
2022/07/04 12:49:46;;;;;;;5.47;1.70;;;34.30;59.40;;;;;;5023829;28;20398;-70
2022/07/04 12:52:14;;;;;;;3.97;1.90;;;32.90;63.30;;;;;;5024032;28;20962;-71
2022/07/04 12:54:41;;;;;;;3.70;1.63;;;33.50;63.00;;;;;;5023308;28;20906;-70
2022/07/04 12:57:09;;;;;;;1.77;1.60;;;34.80;60.90;;;;;;5023244;28;20426;-71
2022/07/04 12:59:36;;;;;;;2.90;1.70;;;33.80;61.50;;;;;;5023483;28;20413;-70
2022/07/04 13:02:01;;;;;;;4.13;1.97;;;35.90;61.40;;;;;;5023257;28;20969;-70
2022/07/04 13:04:27;;;;;;;1.70;1.40;;;37.00;56.20;;;;;;5023344;28;20414;-71
2022/07/04 13:06:53;;;;;;;1.97;1.80;;;36.60;56.30;;;;;;5027780;28;20191;-69
2022/07/04 13:09:19;;;;;;;1.80;1.70;;;35.90;57.30;;;;;;5027295;28;20327;-69
2022/07/04 13:14:29;;;;;;;3.93;1.93;;;34.70;58.70;;;;;;5027625;28;20596;-71
2022/07/04 13:16:55;;;;;;;1.70;1.50;;;33.50;60.60;;;;;;5027521;28;20454;-70